sensor_id;sensor_type;location;lat;lon;timestamp;P1;durP1;ratioP1;P2;durP2;ratioP2
4704;SDS011;2366;51.332;6.610;2023-05-31T00:01:56;8.60;;;7.10;;
4704;SDS011;2366;51.332;6.610;2023-05-31T00:04:22;10.73;;;8.67;;
4704;SDS011;2366;51.332;6.610;2023-05-31T00:06:47;12.77;;;8.17;;
4704;SDS011;2366;51.332;6.610;2023-05-31T00:09:12;10.73;;;7.83;;
4704;SDS011;2366;51.332;6.610;2023-05-31T00:11:38;13.00;;;8.57;;
4704;SDS011;2366;51.332;6.610;2023-05-31T00:14:03;12.90;;;7.50;;
4704;SDS011;2366;51.332;6.610;2023-05-31T00:16:29;12.77;;;8.70;;
4704;SDS011;2366;51.332;6.610;2023-05-31T00:18:54;11.40;;;8.03;;
4704;SDS011;2366;51.332;6.610;2023-05-31T00:21:19;10.87;;;7.93;;
4704;SDS011;2366;51.332;6.610;2023-05-31T00:23:45;14.77;;;8.30;;
4704;SDS011;2366;51.332;6.610;2023-05-31T00:26:10;12.03;;;8.70;;
4704;SDS011;2366;51.332;6.610;2023-05-31T00:28:36;14.90;;;7.70;;
4704;SDS011;2366;51.332;6.610;2023-05-31T00:31:01;9.77;;;7.73;;
4704;SDS011;2366;51.332;6.610;2023-05-31T00:33:27;12.30;;;7.77;;
4704;SDS011;2366;51.332;6.610;2023-05-31T00:35:52;18.43;;;9.83;;
4704;SDS011;2366;51.332;6.610;2023-05-31T00:38:18;10.57;;;6.63;;
4704;SDS011;2366;51.332;6.610;2023-05-31T00:40:44;10.60;;;8.60;;
4704;SDS011;2366;51.332;6.610;2023-05-31T00:43:09;12.77;;;8.18;;
4704;SDS011;2366;51.332;6.610;2023-05-31T00:45:35;9.00;;;8.00;;
4704;SDS011;2366;51.332;6.610;2023-05-31T00:48:01;10.77;;;7.63;;
4704;SDS011;2366;51.332;6.610;2023-05-31T00:50:26;10.60;;;7.57;;
4704;SDS011;2366;51.332;6.610;2023-05-31T00:52:52;13.23;;;8.67;;
4704;SDS011;2366;51.332;6.610;2023-05-31T00:55:20;11.25;;;8.13;;
4704;SDS011;2366;51.332;6.610;2023-05-31T00:57:46;12.90;;;8.18;;
4704;SDS011;2366;51.332;6.610;2023-05-31T01:00:12;14.17;;;7.93;;
4704;SDS011;2366;51.332;6.610;2023-05-31T01:02:39;12.05;;;8.25;;
4704;SDS011;2366;51.332;6.610;2023-05-31T01:05:06;15.40;;;8.77;;
4704;SDS011;2366;51.332;6.610;2023-05-31T01:07:32;9.88;;;7.30;;
4704;SDS011;2366;51.332;6.610;2023-05-31T01:09:58;15.13;;;8.33;;
4704;SDS011;2366;51.332;6.610;2023-05-31T01:15:31;12.95;;;8.15;;
4704;SDS011;2366;51.332;6.610;2023-05-31T01:18:10;9.98;;;7.70;;
4704;SDS011;2366;51.332;6.610;2023-05-31T01:20:38;11.20;;;8.15;;
4704;SDS011;2366;51.332;6.610;2023-05-31T01:28:33;10.18;;;7.60;;
4704;SDS011;2366;51.332;6.610;2023-05-31T01:31:06;13.32;;;8.88;;
4704;SDS011;2366;51.332;6.610;2023-05-31T01:33:34;22.15;;;9.68;;
4704;SDS011;2366;51.332;6.610;2023-05-31T01:36:00;11.43;;;8.43;;
4704;SDS011;2366;51.332;6.610;2023-05-31T01:38:26;12.37;;;8.70;;
4704;SDS011;2366;51.332;6.610;2023-05-31T01:40:52;18.73;;;9.47;;
4704;SDS011;2366;51.332;6.610;2023-05-31T01:43:20;14.48;;;8.10;;
4704;SDS011;2366;51.332;6.610;2023-05-31T01:45:46;15.53;;;8.27;;
4704;SDS011;2366;51.332;6.610;2023-05-31T01:48:11;13.90;;;8.50;;
4704;SDS011;2366;51.332;6.610;2023-05-31T01:50:38;11.45;;;8.82;;
4704;SDS011;2366;51.332;6.610;2023-05-31T01:53:06;14.82;;;9.35;;
4704;SDS011;2366;51.332;6.610;2023-05-31T01:55:32;15.90;;;9.60;;
4704;SDS011;2366;51.332;6.610;2023-05-31T01:57:57;14.10;;;9.50;;
4704;SDS011;2366;51.332;6.610;2023-05-31T02:00:24;15.68;;;9.95;;
4704;SDS011;2366;51.332;6.610;2023-05-31T02:02:50;16.90;;;10.17;;
4704;SDS011;2366;51.332;6.610;2023-05-31T02:05:16;13.23;;;9.13;;
4704;SDS011;2366;51.332;6.610;2023-05-31T02:07:42;14.53;;;10.00;;
4704;SDS011;2366;51.332;6.610;2023-05-31T02:10:09;18.75;;;8.02;;
4704;SDS011;2366;51.332;6.610;2023-05-31T02:12:35;11.25;;;9.25;;
4704;SDS011;2366;51.332;6.610;2023-05-31T02:15:01;15.48;;;9.55;;
4704;SDS011;2366;51.332;6.610;2023-05-31T02:17:28;13.70;;;9.13;;
4704;SDS011;2366;51.332;6.610;2023-05-31T02:19:57;12.18;;;8.75;;
4704;SDS011;2366;51.332;6.610;2023-05-31T02:22:23;14.90;;;9.37;;
4704;SDS011;2366;51.332;6.610;2023-05-31T02:24:48;15.40;;;9.27;;
4704;SDS011;2366;51.332;6.610;2023-05-31T02:27:14;9.80;;;8.00;;
4704;SDS011;2366;51.332;6.610;2023-05-31T02:29:40;18.37;;;10.10;;
4704;SDS011;2366;51.332;6.610;2023-05-31T02:32:06;16.23;;;10.17;;
4704;SDS011;2366;51.332;6.610;2023-05-31T02:34:32;13.93;;;9.40;;
4704;SDS011;2366;51.332;6.610;2023-05-31T02:36:58;14.45;;;9.07;;
4704;SDS011;2366;51.332;6.610;2023-05-31T02:39:24;12.20;;;8.93;;
4704;SDS011;2366;51.332;6.610;2023-05-31T02:41:50;13.70;;;9.07;;
4704;SDS011;2366;51.332;6.610;2023-05-31T02:44:16;14.37;;;10.50;;
4704;SDS011;2366;51.332;6.610;2023-05-31T02:46:41;13.80;;;9.97;;
4704;SDS011;2366;51.332;6.610;2023-05-31T02:49:07;11.30;;;8.70;;
4704;SDS011;2366;51.332;6.610;2023-05-31T02:51:32;15.50;;;10.10;;
4704;SDS011;2366;51.332;6.610;2023-05-31T02:53:58;13.07;;;9.23;;
4704;SDS011;2366;51.332;6.610;2023-05-31T02:56:23;11.43;;;8.10;;
4704;SDS011;2366;51.332;6.610;2023-05-31T02:58:49;14.37;;;9.30;;
4704;SDS011;2366;51.332;6.610;2023-05-31T03:01:14;15.60;;;9.87;;
4704;SDS011;2366;51.332;6.610;2023-05-31T03:03:40;15.33;;;9.80;;
4704;SDS011;2366;51.332;6.610;2023-05-31T03:06:06;9.40;;;7.90;;
4704;SDS011;2366;51.332;6.610;2023-05-31T03:08:31;14.10;;;7.93;;
4704;SDS011;2366;51.332;6.610;2023-05-31T03:10:57;15.60;;;9.10;;
4704;SDS011;2366;51.332;6.610;2023-05-31T03:13:22;23.77;;;10.63;;
4704;SDS011;2366;51.332;6.610;2023-05-31T03:15:48;12.07;;;8.60;;
4704;SDS011;2366;51.332;6.610;2023-05-31T03:18:13;12.40;;;8.30;;
4704;SDS011;2366;51.332;6.610;2023-05-31T03:20:39;14.43;;;9.30;;
4704;SDS011;2366;51.332;6.610;2023-05-31T03:23:04;17.47;;;9.03;;
4704;SDS011;2366;51.332;6.610;2023-05-31T03:25:31;25.27;;;9.75;;
4704;SDS011;2366;51.332;6.610;2023-05-31T03:27:57;17.87;;;10.20;;
4704;SDS011;2366;51.332;6.610;2023-05-31T03:30:22;15.00;;;10.40;;
4704;SDS011;2366;51.332;6.610;2023-05-31T03:32:48;11.57;;;8.77;;
4704;SDS011;2366;51.332;6.610;2023-05-31T03:35:13;15.43;;;9.40;;
4704;SDS011;2366;51.332;6.610;2023-05-31T03:37:39;14.90;;;9.73;;
4704;SDS011;2366;51.332;6.610;2023-05-31T03:40:05;12.20;;;9.67;;
4704;SDS011;2366;51.332;6.610;2023-05-31T03:42:31;13.25;;;9.23;;
4704;SDS011;2366;51.332;6.610;2023-05-31T03:44:56;15.07;;;8.60;;
4704;SDS011;2366;51.332;6.610;2023-05-31T03:47:22;14.50;;;9.57;;
4704;SDS011;2366;51.332;6.610;2023-05-31T03:49:47;14.60;;;9.70;;
4704;SDS011;2366;51.332;6.610;2023-05-31T03:52:13;13.30;;;9.37;;
4704;SDS011;2366;51.332;6.610;2023-05-31T03:54:38;11.80;;;8.20;;
4704;SDS011;2366;51.332;6.610;2023-05-31T03:57:04;11.45;;;9.45;;
4704;SDS011;2366;51.332;6.610;2023-05-31T03:59:30;13.88;;;8.50;;
4704;SDS011;2366;51.332;6.610;2023-05-31T04:01:56;10.23;;;7.40;;
4704;SDS011;2366;51.332;6.610;2023-05-31T04:04:21;9.13;;;6.90;;
4704;SDS011;2366;51.332;6.610;2023-05-31T04:06:48;12.00;;;8.35;;
4704;SDS011;2366;51.332;6.610;2023-05-31T04:09:13;13.30;;;6.90;;
4704;SDS011;2366;51.332;6.610;2023-05-31T04:11:38;10.83;;;6.47;;
4704;SDS011;2366;51.332;6.610;2023-05-31T04:14:04;11.60;;;7.53;;
4704;SDS011;2366;51.332;6.610;2023-05-31T04:16:29;11.83;;;7.30;;
4704;SDS011;2366;51.332;6.610;2023-05-31T04:18:54;10.17;;;6.70;;
4704;SDS011;2366;51.332;6.610;2023-05-31T04:21:20;11.13;;;7.90;;
4704;SDS011;2366;51.332;6.610;2023-05-31T04:23:45;10.10;;;7.07;;
4704;SDS011;2366;51.332;6.610;2023-05-31T04:26:11;11.30;;;7.47;;
4704;SDS011;2366;51.332;6.610;2023-05-31T04:28:41;9.15;;;6.95;;
4704;SDS011;2366;51.332;6.610;2023-05-31T04:31:07;12.95;;;7.75;;
4704;SDS011;2366;51.332;6.610;2023-05-31T04:33:33;9.47;;;7.23;;
4704;SDS011;2366;51.332;6.610;2023-05-31T04:36:00;7.55;;;6.75;;
4704;SDS011;2366;51.332;6.610;2023-05-31T04:38:28;11.00;;;6.57;;
4704;SDS011;2366;51.332;6.610;2023-05-31T04:40:55;7.50;;;6.53;;
4704;SDS011;2366;51.332;6.610;2023-05-31T04:43:22;10.63;;;7.63;;
4704;SDS011;2366;51.332;6.610;2023-05-31T04:45:50;8.50;;;6.77;;
4704;SDS011;2366;51.332;6.610;2023-05-31T04:48:16;11.23;;;7.00;;
4704;SDS011;2366;51.332;6.610;2023-05-31T04:50:42;7.53;;;6.63;;
4704;SDS011;2366;51.332;6.610;2023-05-31T04:53:07;8.27;;;6.83;;
4704;SDS011;2366;51.332;6.610;2023-05-31T04:55:33;7.53;;;6.40;;
4704;SDS011;2366;51.332;6.610;2023-05-31T04:57:58;11.23;;;6.80;;
4704;SDS011;2366;51.332;6.610;2023-05-31T05:00:23;8.47;;;6.20;;
4704;SDS011;2366;51.332;6.610;2023-05-31T05:02:49;7.80;;;5.87;;
4704;SDS011;2366;51.332;6.610;2023-05-31T05:05:14;6.97;;;6.27;;
4704;SDS011;2366;51.332;6.610;2023-05-31T05:07:41;9.33;;;5.87;;
4704;SDS011;2366;51.332;6.610;2023-05-31T05:10:06;9.80;;;6.33;;
4704;SDS011;2366;51.332;6.610;2023-05-31T05:12:32;7.13;;;6.33;;
4704;SDS011;2366;51.332;6.610;2023-05-31T05:14:58;10.33;;;6.33;;
4704;SDS011;2366;51.332;6.610;2023-05-31T05:17:23;6.33;;;5.73;;
4704;SDS011;2366;51.332;6.610;2023-05-31T05:19:48;11.07;;;5.97;;
4704;SDS011;2366;51.332;6.610;2023-05-31T05:22:15;8.93;;;7.33;;
4704;SDS011;2366;51.332;6.610;2023-05-31T05:24:41;9.23;;;6.37;;
4704;SDS011;2366;51.332;6.610;2023-05-31T05:27:06;10.63;;;7.90;;
4704;SDS011;2366;51.332;6.610;2023-05-31T05:29:32;11.87;;;6.77;;
4704;SDS011;2366;51.332;6.610;2023-05-31T05:31:58;7.10;;;6.10;;
4704;SDS011;2366;51.332;6.610;2023-05-31T05:34:24;8.10;;;5.83;;
4704;SDS011;2366;51.332;6.610;2023-05-31T05:36:49;9.80;;;6.97;;
4704;SDS011;2366;51.332;6.610;2023-05-31T05:39:15;12.00;;;6.03;;
4704;SDS011;2366;51.332;6.610;2023-05-31T05:41:40;8.23;;;6.30;;
4704;SDS011;2366;51.332;6.610;2023-05-31T05:44:05;21.00;;;7.67;;
4704;SDS011;2366;51.332;6.610;2023-05-31T05:46:31;9.50;;;7.00;;
4704;SDS011;2366;51.332;6.610;2023-05-31T05:48:56;9.33;;;5.97;;
4704;SDS011;2366;51.332;6.610;2023-05-31T05:51:22;8.97;;;5.43;;
4704;SDS011;2366;51.332;6.610;2023-05-31T05:53:47;9.97;;;5.73;;
4704;SDS011;2366;51.332;6.610;2023-05-31T05:56:12;10.00;;;5.90;;
4704;SDS011;2366;51.332;6.610;2023-05-31T05:58:43;8.57;;;7.00;;
4704;SDS011;2366;51.332;6.610;2023-05-31T06:01:08;11.40;;;6.27;;
4704;SDS011;2366;51.332;6.610;2023-05-31T06:03:37;10.17;;;6.67;;
4704;SDS011;2366;51.332;6.610;2023-05-31T06:06:04;7.70;;;6.60;;
4704;SDS011;2366;51.332;6.610;2023-05-31T06:08:29;6.00;;;4.70;;
4704;SDS011;2366;51.332;6.610;2023-05-31T06:10:55;6.87;;;5.80;;
4704;SDS011;2366;51.332;6.610;2023-05-31T06:13:20;8.50;;;6.40;;
4704;SDS011;2366;51.332;6.610;2023-05-31T06:15:45;15.50;;;7.50;;
4704;SDS011;2366;51.332;6.610;2023-05-31T06:18:11;16.07;;;9.63;;
4704;SDS011;2366;51.332;6.610;2023-05-31T06:20:36;10.87;;;6.77;;
4704;SDS011;2366;51.332;6.610;2023-05-31T06:23:02;12.37;;;6.30;;
4704;SDS011;2366;51.332;6.610;2023-05-31T06:25:27;9.30;;;5.63;;
4704;SDS011;2366;51.332;6.610;2023-05-31T06:27:53;8.13;;;4.47;;
4704;SDS011;2366;51.332;6.610;2023-05-31T06:30:18;6.03;;;5.47;;
4704;SDS011;2366;51.332;6.610;2023-05-31T06:32:43;8.27;;;5.37;;
4704;SDS011;2366;51.332;6.610;2023-05-31T06:35:09;7.93;;;6.20;;
4704;SDS011;2366;51.332;6.610;2023-05-31T06:37:34;10.33;;;5.63;;
4704;SDS011;2366;51.332;6.610;2023-05-31T06:40:01;12.53;;;5.33;;
4704;SDS011;2366;51.332;6.610;2023-05-31T06:42:26;7.50;;;5.73;;
4704;SDS011;2366;51.332;6.610;2023-05-31T06:44:51;8.77;;;5.80;;
4704;SDS011;2366;51.332;6.610;2023-05-31T06:47:17;15.30;;;6.67;;
4704;SDS011;2366;51.332;6.610;2023-05-31T06:49:42;7.13;;;4.83;;
4704;SDS011;2366;51.332;6.610;2023-05-31T06:52:08;8.87;;;5.73;;
4704;SDS011;2366;51.332;6.610;2023-05-31T06:54:35;11.20;;;6.53;;
4704;SDS011;2366;51.332;6.610;2023-05-31T06:57:01;8.07;;;5.33;;
4704;SDS011;2366;51.332;6.610;2023-05-31T06:59:28;15.97;;;6.30;;
4704;SDS011;2366;51.332;6.610;2023-05-31T07:01:53;10.87;;;5.60;;
4704;SDS011;2366;51.332;6.610;2023-05-31T07:04:19;7.90;;;5.70;;
4704;SDS011;2366;51.332;6.610;2023-05-31T07:06:45;9.00;;;5.40;;
4704;SDS011;2366;51.332;6.610;2023-05-31T07:09:10;5.27;;;4.77;;
4704;SDS011;2366;51.332;6.610;2023-05-31T07:11:38;8.90;;;5.67;;
4704;SDS011;2366;51.332;6.610;2023-05-31T07:14:04;10.70;;;7.03;;
4704;SDS011;2366;51.332;6.610;2023-05-31T07:16:30;7.30;;;5.23;;
4704;SDS011;2366;51.332;6.610;2023-05-31T07:18:56;9.00;;;5.83;;
4704;SDS011;2366;51.332;6.610;2023-05-31T07:21:21;7.07;;;5.20;;
4704;SDS011;2366;51.332;6.610;2023-05-31T07:23:47;8.20;;;5.30;;
4704;SDS011;2366;51.332;6.610;2023-05-31T07:26:13;7.47;;;6.03;;
4704;SDS011;2366;51.332;6.610;2023-05-31T07:28:40;9.67;;;5.67;;
4704;SDS011;2366;51.332;6.610;2023-05-31T07:31:09;10.43;;;5.40;;
4704;SDS011;2366;51.332;6.610;2023-05-31T07:33:34;8.90;;;5.40;;
4704;SDS011;2366;51.332;6.610;2023-05-31T07:36:00;9.00;;;7.00;;
4704;SDS011;2366;51.332;6.610;2023-05-31T07:38:26;8.30;;;5.60;;
4704;SDS011;2366;51.332;6.610;2023-05-31T07:40:51;5.47;;;4.80;;
4704;SDS011;2366;51.332;6.610;2023-05-31T07:43:17;8.73;;;5.50;;
4704;SDS011;2366;51.332;6.610;2023-05-31T07:45:47;8.63;;;4.90;;
4704;SDS011;2366;51.332;6.610;2023-05-31T07:48:13;10.33;;;5.63;;
4704;SDS011;2366;51.332;6.610;2023-05-31T07:50:38;8.63;;;4.60;;
4704;SDS011;2366;51.332;6.610;2023-05-31T07:53:03;8.97;;;5.43;;
4704;SDS011;2366;51.332;6.610;2023-05-31T07:55:29;6.17;;;4.63;;
4704;SDS011;2366;51.332;6.610;2023-05-31T07:57:54;7.33;;;4.10;;
4704;SDS011;2366;51.332;6.610;2023-05-31T08:00:20;26.57;;;5.93;;
4704;SDS011;2366;51.332;6.610;2023-05-31T08:02:45;9.70;;;4.90;;
4704;SDS011;2366;51.332;6.610;2023-05-31T08:05:12;10.60;;;5.83;;
4704;SDS011;2366;51.332;6.610;2023-05-31T08:07:38;11.33;;;4.27;;
4704;SDS011;2366;51.332;6.610;2023-05-31T08:10:03;8.00;;;4.33;;
4704;SDS011;2366;51.332;6.610;2023-05-31T08:12:29;10.40;;;4.70;;
4704;SDS011;2366;51.332;6.610;2023-05-31T08:14:55;9.60;;;5.20;;
4704;SDS011;2366;51.332;6.610;2023-05-31T08:17:20;10.50;;;6.50;;
4704;SDS011;2366;51.332;6.610;2023-05-31T08:19:46;12.13;;;7.23;;
4704;SDS011;2366;51.332;6.610;2023-05-31T08:22:11;8.67;;;5.30;;
4704;SDS011;2366;51.332;6.610;2023-05-31T08:24:37;5.67;;;3.80;;
4704;SDS011;2366;51.332;6.610;2023-05-31T08:27:02;7.63;;;4.70;;
4704;SDS011;2366;51.332;6.610;2023-05-31T08:29:28;6.80;;;5.23;;
4704;SDS011;2366;51.332;6.610;2023-05-31T08:31:53;8.27;;;4.70;;
4704;SDS011;2366;51.332;6.610;2023-05-31T08:34:19;9.00;;;5.07;;
4704;SDS011;2366;51.332;6.610;2023-05-31T08:36:44;9.90;;;4.87;;
4704;SDS011;2366;51.332;6.610;2023-05-31T08:39:10;6.03;;;4.50;;
4704;SDS011;2366;51.332;6.610;2023-05-31T08:44:31;5.97;;;4.03;;
4704;SDS011;2366;51.332;6.610;2023-05-31T08:47:42;6.47;;;4.00;;
4704;SDS011;2366;51.332;6.610;2023-05-31T08:49:53;4.60;;;3.13;;
4704;SDS011;2366;51.332;6.610;2023-05-31T08:52:20;10.67;;;3.30;;
4704;SDS011;2366;51.332;6.610;2023-05-31T08:54:46;5.07;;;3.60;;
4704;SDS011;2366;51.332;6.610;2023-05-31T08:57:13;3.60;;;2.90;;
4704;SDS011;2366;51.332;6.610;2023-05-31T08:59:39;4.43;;;3.47;;
4704;SDS011;2366;51.332;6.610;2023-05-31T09:02:05;9.93;;;4.60;;
4704;SDS011;2366;51.332;6.610;2023-05-31T09:04:34;4.30;;;3.57;;
4704;SDS011;2366;51.332;6.610;2023-05-31T09:07:00;11.90;;;3.67;;
4704;SDS011;2366;51.332;6.610;2023-05-31T09:09:27;6.60;;;3.57;;
4704;SDS011;2366;51.332;6.610;2023-05-31T09:11:52;6.40;;;2.60;;
4704;SDS011;2366;51.332;6.610;2023-05-31T09:14:17;2.60;;;2.40;;
4704;SDS011;2366;51.332;6.610;2023-05-31T09:16:43;6.27;;;3.17;;
4704;SDS011;2366;51.332;6.610;2023-05-31T09:19:09;13.07;;;3.83;;
4704;SDS011;2366;51.332;6.610;2023-05-31T09:21:38;3.00;;;2.70;;
4704;SDS011;2366;51.332;6.610;2023-05-31T09:24:05;4.57;;;3.23;;
4704;SDS011;2366;51.332;6.610;2023-05-31T09:26:31;4.50;;;2.60;;
4704;SDS011;2366;51.332;6.610;2023-05-31T09:28:58;5.87;;;2.60;;
4704;SDS011;2366;51.332;6.610;2023-05-31T09:31:23;7.47;;;2.67;;
4704;SDS011;2366;51.332;6.610;2023-05-31T09:33:50;3.90;;;2.63;;
4704;SDS011;2366;51.332;6.610;2023-05-31T09:38:57;8.00;;;2.70;;
4704;SDS011;2366;51.332;6.610;2023-05-31T09:41:26;4.90;;;2.90;;
4704;SDS011;2366;51.332;6.610;2023-05-31T09:43:52;4.17;;;2.60;;
4704;SDS011;2366;51.332;6.610;2023-05-31T09:46:18;4.20;;;3.03;;
4704;SDS011;2366;51.332;6.610;2023-05-31T09:48:45;4.57;;;2.47;;
4704;SDS011;2366;51.332;6.610;2023-05-31T09:51:23;4.63;;;2.37;;
4704;SDS011;2366;51.332;6.610;2023-05-31T09:53:49;6.00;;;2.00;;
4704;SDS011;2366;51.332;6.610;2023-05-31T09:56:17;9.00;;;2.60;;
4704;SDS011;2366;51.332;6.610;2023-05-31T09:58:43;11.27;;;1.63;;
4704;SDS011;2366;51.332;6.610;2023-05-31T10:01:09;3.70;;;1.80;;
4704;SDS011;2366;51.332;6.610;2023-05-31T10:03:35;2.23;;;1.73;;
4704;SDS011;2366;51.332;6.610;2023-05-31T10:06:01;3.80;;;1.93;;
4704;SDS011;2366;51.332;6.610;2023-05-31T10:08:27;1.80;;;1.70;;
4704;SDS011;2366;51.332;6.610;2023-05-31T10:10:54;5.80;;;1.67;;
4704;SDS011;2366;51.332;6.610;2023-05-31T10:13:22;3.83;;;2.10;;
4704;SDS011;2366;51.332;6.610;2023-05-31T10:15:51;5.77;;;1.77;;
4704;SDS011;2366;51.332;6.610;2023-05-31T10:18:20;3.07;;;2.07;;
4704;SDS011;2366;51.332;6.610;2023-05-31T10:20:55;7.80;;;2.90;;
4704;SDS011;2366;51.332;6.610;2023-05-31T10:23:24;2.80;;;1.80;;
4704;SDS011;2366;51.332;6.610;2023-05-31T10:25:54;2.87;;;2.00;;
4704;SDS011;2366;51.332;6.610;2023-05-31T10:28:34;2.13;;;1.60;;
4704;SDS011;2366;51.332;6.610;2023-05-31T10:31:03;2.70;;;1.90;;
4704;SDS011;2366;51.332;6.610;2023-05-31T10:33:29;7.03;;;2.23;;
4704;SDS011;2366;51.332;6.610;2023-05-31T10:35:59;5.90;;;2.20;;
4704;SDS011;2366;51.332;6.610;2023-05-31T10:38:30;5.70;;;2.30;;
4704;SDS011;2366;51.332;6.610;2023-05-31T10:41:08;12.23;;;2.47;;
4704;SDS011;2366;51.332;6.610;2023-05-31T10:43:39;3.87;;;1.83;;
4704;SDS011;2366;51.332;6.610;2023-05-31T10:46:10;6.17;;;2.60;;
4704;SDS011;2366;51.332;6.610;2023-05-31T10:51:09;7.00;;;2.07;;
4704;SDS011;2366;51.332;6.610;2023-05-31T10:53:36;4.67;;;2.80;;
4704;SDS011;2366;51.332;6.610;2023-05-31T10:56:06;3.53;;;2.30;;
4704;SDS011;2366;51.332;6.610;2023-05-31T10:58:36;3.63;;;1.80;;
4704;SDS011;2366;51.332;6.610;2023-05-31T11:01:07;4.60;;;2.13;;
4704;SDS011;2366;51.332;6.610;2023-05-31T11:03:46;2.77;;;2.33;;
4704;SDS011;2366;51.332;6.610;2023-05-31T11:06:12;4.10;;;2.13;;
4704;SDS011;2366;51.332;6.610;2023-05-31T11:08:59;3.60;;;2.20;;
4704;SDS011;2366;51.332;6.610;2023-05-31T11:13:57;5.00;;;2.00;;
4704;SDS011;2366;51.332;6.610;2023-05-31T11:16:31;4.33;;;2.83;;
4704;SDS011;2366;51.332;6.610;2023-05-31T11:19:29;4.83;;;2.00;;
4704;SDS011;2366;51.332;6.610;2023-05-31T11:21:56;5.17;;;2.60;;
4704;SDS011;2366;51.332;6.610;2023-05-31T11:24:32;7.20;;;2.00;;
4704;SDS011;2366;51.332;6.610;2023-05-31T11:26:59;5.50;;;2.37;;
4704;SDS011;2366;51.332;6.610;2023-05-31T11:32:10;8.40;;;1.67;;
4704;SDS011;2366;51.332;6.610;2023-05-31T11:34:36;2.97;;;1.87;;
4704;SDS011;2366;51.332;6.610;2023-05-31T11:37:23;2.40;;;1.60;;
4704;SDS011;2366;51.332;6.610;2023-05-31T11:39:53;2.60;;;1.70;;
4704;SDS011;2366;51.332;6.610;2023-05-31T11:42:19;3.67;;;1.90;;
4704;SDS011;2366;51.332;6.610;2023-05-31T11:44:45;6.80;;;2.37;;
4704;SDS011;2366;51.332;6.610;2023-05-31T11:49:44;5.27;;;2.33;;
4704;SDS011;2366;51.332;6.610;2023-05-31T11:52:14;4.87;;;2.50;;
4704;SDS011;2366;51.332;6.610;2023-05-31T11:54:41;4.40;;;2.00;;
4704;SDS011;2366;51.332;6.610;2023-05-31T11:57:08;7.23;;;1.97;;
4704;SDS011;2366;51.332;6.610;2023-05-31T11:59:34;4.43;;;1.97;;
4704;SDS011;2366;51.332;6.610;2023-05-31T12:02:01;6.37;;;2.53;;
4704;SDS011;2366;51.332;6.610;2023-05-31T12:07:14;3.03;;;2.10;;
4704;SDS011;2366;51.332;6.610;2023-05-31T12:09:42;10.80;;;2.23;;
4704;SDS011;2366;51.332;6.610;2023-05-31T12:12:07;3.33;;;1.93;;
4704;SDS011;2366;51.332;6.610;2023-05-31T12:14:33;3.83;;;2.20;;
4704;SDS011;2366;51.332;6.610;2023-05-31T12:17:00;8.53;;;2.40;;
4704;SDS011;2366;51.332;6.610;2023-05-31T12:19:28;2.47;;;1.67;;
4704;SDS011;2366;51.332;6.610;2023-05-31T12:21:54;1.70;;;1.60;;
4704;SDS011;2366;51.332;6.610;2023-05-31T12:24:19;5.53;;;1.73;;
4704;SDS011;2366;51.332;6.610;2023-05-31T12:26:45;2.50;;;2.10;;
4704;SDS011;2366;51.332;6.610;2023-05-31T12:29:13;5.57;;;2.60;;
4704;SDS011;2366;51.332;6.610;2023-05-31T12:31:40;6.60;;;3.30;;
4704;SDS011;2366;51.332;6.610;2023-05-31T12:34:10;4.57;;;1.90;;
4704;SDS011;2366;51.332;6.610;2023-05-31T12:36:37;2.73;;;1.67;;
4704;SDS011;2366;51.332;6.610;2023-05-31T12:39:06;8.50;;;1.93;;
4704;SDS011;2366;51.332;6.610;2023-05-31T12:41:36;6.73;;;2.10;;
4704;SDS011;2366;51.332;6.610;2023-05-31T12:44:02;7.97;;;2.63;;
4704;SDS011;2366;51.332;6.610;2023-05-31T12:46:27;2.70;;;1.87;;
4704;SDS011;2366;51.332;6.610;2023-05-31T12:48:53;2.40;;;2.20;;
4704;SDS011;2366;51.332;6.610;2023-05-31T12:51:21;2.07;;;1.80;;
4704;SDS011;2366;51.332;6.610;2023-05-31T12:53:48;2.03;;;1.83;;
4704;SDS011;2366;51.332;6.610;2023-05-31T12:56:13;5.70;;;1.80;;
4704;SDS011;2366;51.332;6.610;2023-05-31T12:58:40;4.80;;;1.90;;
4704;SDS011;2366;51.332;6.610;2023-05-31T13:01:06;3.60;;;2.10;;
4704;SDS011;2366;51.332;6.610;2023-05-31T13:03:32;1.63;;;1.53;;
4704;SDS011;2366;51.332;6.610;2023-05-31T13:05:58;2.33;;;1.90;;
4704;SDS011;2366;51.332;6.610;2023-05-31T13:08:23;5.77;;;2.80;;
4704;SDS011;2366;51.332;6.610;2023-05-31T13:10:48;7.00;;;1.67;;
4704;SDS011;2366;51.332;6.610;2023-05-31T13:13:14;2.00;;;1.33;;
4704;SDS011;2366;51.332;6.610;2023-05-31T13:15:40;2.23;;;1.57;;
4704;SDS011;2366;51.332;6.610;2023-05-31T13:18:05;3.67;;;1.50;;
4704;SDS011;2366;51.332;6.610;2023-05-31T13:20:31;2.70;;;1.27;;
4704;SDS011;2366;51.332;6.610;2023-05-31T13:22:57;2.20;;;2.00;;
4704;SDS011;2366;51.332;6.610;2023-05-31T13:25:22;7.90;;;2.13;;
4704;SDS011;2366;51.332;6.610;2023-05-31T13:27:51;3.80;;;1.47;;
4704;SDS011;2366;51.332;6.610;2023-05-31T13:30:16;2.27;;;1.77;;
4704;SDS011;2366;51.332;6.610;2023-05-31T13:32:42;8.27;;;2.07;;
4704;SDS011;2366;51.332;6.610;2023-05-31T13:35:08;6.83;;;1.63;;
4704;SDS011;2366;51.332;6.610;2023-05-31T13:37:34;6.17;;;2.10;;
4704;SDS011;2366;51.332;6.610;2023-05-31T13:40:00;5.43;;;1.90;;
4704;SDS011;2366;51.332;6.610;2023-05-31T13:42:25;5.33;;;1.53;;
4704;SDS011;2366;51.332;6.610;2023-05-31T13:44:51;4.50;;;2.13;;
4704;SDS011;2366;51.332;6.610;2023-05-31T13:47:16;6.63;;;1.70;;
4704;SDS011;2366;51.332;6.610;2023-05-31T13:49:42;6.63;;;2.07;;
4704;SDS011;2366;51.332;6.610;2023-05-31T13:52:07;3.27;;;1.83;;
4704;SDS011;2366;51.332;6.610;2023-05-31T13:54:35;1.80;;;1.70;;
4704;SDS011;2366;51.332;6.610;2023-05-31T13:57:00;4.10;;;1.83;;
4704;SDS011;2366;51.332;6.610;2023-05-31T13:59:26;4.70;;;1.70;;
4704;SDS011;2366;51.332;6.610;2023-05-31T14:01:52;1.77;;;1.63;;
4704;SDS011;2366;51.332;6.610;2023-05-31T14:04:17;2.90;;;1.27;;
4704;SDS011;2366;51.332;6.610;2023-05-31T14:06:43;2.23;;;1.80;;
4704;SDS011;2366;51.332;6.610;2023-05-31T14:09:11;8.00;;;2.07;;
4704;SDS011;2366;51.332;6.610;2023-05-31T14:11:37;2.00;;;1.17;;
4704;SDS011;2366;51.332;6.610;2023-05-31T14:14:02;8.33;;;1.80;;
4704;SDS011;2366;51.332;6.610;2023-05-31T14:16:28;3.73;;;1.77;;
4704;SDS011;2366;51.332;6.610;2023-05-31T14:18:53;13.20;;;2.00;;
4704;SDS011;2366;51.332;6.610;2023-05-31T14:21:19;6.23;;;1.60;;
4704;SDS011;2366;51.332;6.610;2023-05-31T14:23:44;4.40;;;1.87;;
4704;SDS011;2366;51.332;6.610;2023-05-31T14:26:10;1.63;;;1.40;;
4704;SDS011;2366;51.332;6.610;2023-05-31T14:28:35;3.17;;;1.70;;
4704;SDS011;2366;51.332;6.610;2023-05-31T14:31:01;5.30;;;1.77;;
4704;SDS011;2366;51.332;6.610;2023-05-31T14:33:27;6.20;;;1.50;;
4704;SDS011;2366;51.332;6.610;2023-05-31T14:35:54;2.30;;;1.60;;
4704;SDS011;2366;51.332;6.610;2023-05-31T14:38:19;5.30;;;1.33;;
4704;SDS011;2366;51.332;6.610;2023-05-31T14:40:45;1.60;;;1.30;;
4704;SDS011;2366;51.332;6.610;2023-05-31T14:43:11;3.30;;;2.50;;
4704;SDS011;2366;51.332;6.610;2023-05-31T14:45:36;6.63;;;2.00;;
4704;SDS011;2366;51.332;6.610;2023-05-31T14:48:02;4.80;;;1.30;;
4704;SDS011;2366;51.332;6.610;2023-05-31T14:50:28;2.80;;;1.70;;
4704;SDS011;2366;51.332;6.610;2023-05-31T14:52:53;4.13;;;2.40;;
4704;SDS011;2366;51.332;6.610;2023-05-31T14:55:18;4.07;;;2.03;;
4704;SDS011;2366;51.332;6.610;2023-05-31T14:57:44;4.03;;;1.70;;
4704;SDS011;2366;51.332;6.610;2023-05-31T15:00:10;4.93;;;1.93;;
4704;SDS011;2366;51.332;6.610;2023-05-31T15:02:47;3.50;;;2.13;;
4704;SDS011;2366;51.332;6.610;2023-05-31T15:05:12;14.90;;;2.80;;
4704;SDS011;2366;51.332;6.610;2023-05-31T15:07:38;1.40;;;1.30;;
4704;SDS011;2366;51.332;6.610;2023-05-31T15:10:03;2.40;;;1.37;;
4704;SDS011;2366;51.332;6.610;2023-05-31T15:12:29;4.40;;;2.40;;
4704;SDS011;2366;51.332;6.610;2023-05-31T15:14:55;2.97;;;2.13;;
4704;SDS011;2366;51.332;6.610;2023-05-31T15:17:20;4.80;;;2.37;;
4704;SDS011;2366;51.332;6.610;2023-05-31T15:19:45;4.53;;;1.70;;
4704;SDS011;2366;51.332;6.610;2023-05-31T15:22:11;1.90;;;1.60;;
4704;SDS011;2366;51.332;6.610;2023-05-31T15:24:36;4.50;;;1.60;;
4704;SDS011;2366;51.332;6.610;2023-05-31T15:27:03;2.90;;;2.10;;
4704;SDS011;2366;51.332;6.610;2023-05-31T15:29:29;2.03;;;1.50;;
4704;SDS011;2366;51.332;6.610;2023-05-31T15:31:54;3.27;;;1.53;;
4704;SDS011;2366;51.332;6.610;2023-05-31T15:34:22;3.83;;;1.70;;